Details From PAOM - Nome
To UHMA - Ugolny
Flight Number -
Tags Generated
Created
Modified
Stats Distance 433 nm / 801 km
Max Altitude 0 ft / 0 m
Waypoints 3
Social Downloads 0
Likes 0
Share VATSIM

Download

Looking for another format? Having issues loading an existing format? Contact us
Advertisement - Login to hide

Notes

Generated

Route

PAOM UHMA UHMA

ID Type Via Altitude Latitude Longitude Leg Dist Tot Dist Heading (true) Name
O PAOM APT - 0 ft / 0 m 64.50723˚ -165.45178˚ - 0 nm - NOME
UHMA FIX - 0 ft / 0 m 64.73500˚ 177.73833˚ 431 nm 431 nm 279° / 264° -
O UHMA APT - 0 ft / 0 m 64.71979˚ 177.73219˚ 0 nm 432 nm 190° / 190° -

Altitude Profile

Advertisement - Login to hide

Weather


0- 5 10 15 20 25 30 35+ Temperature / ° C

Clouds and Precipitation
Forecast for 2017-12-14 18:00 UTC. Updated 2 minutes ago

Ground ~20,000 ft ~40,000 ft Winds

PAOM

Details ICAO PAOM (OME)
Name NOME
Region USA (Alaska)
Timezone America/Nome (UTC-9.0)
Stats Elevation 37 ft / 11 m (AMSL)
Location 64.512227° -165.445062°
Runways 2
Magnetic Variation 10.034° E

METAR

PAOM 141714Z 20014KT 10SM FEW018 BKN023 OVC049 M03/M04 A2951

Decode

TAF

PAOM 141552Z 1416/1512 23013KT P6SM VCSH BKN030 OVC040 FM142200 19004KT P6SM SCT015 BKN040 BKN100 FM150400 10004KT P6SM FEW040 SCT100 BKN200

Decode

Departure Runways

ID Width Length Bearing (true) Bearing (mag) Surface Threshold Offset Overrun Length
03 151 ft / 46 m 5,560 ft / 1,695 m 41.63° 31.60° Asphalt 0 ft / 0 m 0 ft / 0 m
10 151 ft / 46 m 5,979 ft / 1,822 m 109.76° 99.73° Asphalt 0 ft / 0 m 0 ft / 0 m
21 151 ft / 46 m 5,560 ft / 1,695 m 221.65° 211.62° Asphalt 0 ft / 0 m 0 ft / 0 m
28 151 ft / 46 m 5,979 ft / 1,822 m 289.80° 279.77° Asphalt 0 ft / 0 m 0 ft / 0 m

UHMA

Details ICAO UHMA (DYR)
Name UGOLNY
Region Russia
Timezone Asia/Anadyr (UTC+12.0)
Stats Elevation 194 ft / 59 m (AMSL)
Location 64.734950° 177.741483°
Runways 1
Magnetic Variation 1.432° E

METAR

UHMA 141700Z 03005MPS CAVOK M25/M28 Q1003 RMK END R01/02005MPS QFE748/0998

Decode

TAF

TAF UHMA 141340Z 1415/1515 02006MPS 9999 SCT010 SCT033 TEMPO 1415/1424 06009MPS 2000 SN BCFG SCT006 BKN020 FM150000 06009MPS 4000 -SN BR SCT005 BKN020 TEMPO 1500/1515 02005MPS 1000 SN BR VV003

Decode

Destination Runways

ID Width Length Bearing (true) Bearing (mag) Surface Threshold Offset Overrun Length
01 197 ft / 60 m 11,439 ft / 3,487 m 14.65° 13.22° Concrete 0 ft / 0 m 240 ft / 73 m
19 197 ft / 60 m 11,439 ft / 3,487 m 194.66° 193.23° Concrete 0 ft / 0 m 240 ft / 73 m

Popular Alternatives